Time;durP1;ratioP1;P1;durP2;ratioP2;P2;SDS_P1;SDS_P2;PMS_P1;PMS_P2;Temp;Humidity;BMP_temperature;BMP_pressure;BME280_temperature;BME280_humidity;BME280_pressure;Samples;Min_cycle;Max_cycle;Signal;HPM_P1;HPM_P2
2022/07/07 00:02:26;;;;;;;7.15;1.70;;;;;;;17.46;50.34;100343.84;12190494;19;20064;-81
2022/07/07 00:06:30;;;;;;;3.55;1.67;;;;;;;17.42;50.66;100339.97;12199933;19;20030;-81
2022/07/07 00:10:31;;;;;;;4.68;1.90;;;;;;;17.37;50.26;100338.03;12204226;19;20109;-81
2022/07/07 00:14:34;;;;;;;3.08;1.70;;;;;;;17.34;50.37;100340.53;12194254;19;20011;-81
2022/07/07 00:18:36;;;;;;;3.53;1.70;;;;;;;17.31;50.54;100328.84;12213657;19;20117;-81
2022/07/07 00:22:37;;;;;;;2.85;1.70;;;;;;;17.30;50.76;100329.94;12206921;19;20007;-81
2022/07/07 00:26:39;;;;;;;6.05;1.90;;;;;;;17.33;50.79;100327.72;12187554;19;20018;-82
2022/07/07 00:30:40;;;;;;;4.43;2.00;;;;;;;17.33;50.90;100319.38;12209759;19;20691;-81
2022/07/07 00:34:42;;;;;;;7.00;2.08;;;;;;;17.35;50.78;100319.94;12198209;19;20024;-81
2022/07/07 00:38:44;;;;;;;4.10;1.80;;;;;;;17.33;51.06;100313.81;12187046;19;20088;-83
2022/07/07 00:42:46;;;;;;;2.57;1.40;;;;;;;17.26;51.26;100317.72;12202632;19;20452;-81
2022/07/07 00:46:51;;;;;;;3.55;1.67;;;;;;;17.23;51.26;100311.88;12203969;19;20043;-83
2022/07/07 00:50:53;;;;;;;5.88;1.80;;;;;;;17.18;51.24;100317.47;12179564;19;20487;-82
2022/07/07 00:54:59;;;;;;;2.95;1.65;;;;;;;17.12;51.38;100313.84;12200315;19;20018;-80
2022/07/07 00:59:08;;;;;;;3.38;2.13;;;;;;;17.05;51.23;100316.94;12209405;19;20018;-81
2022/07/07 01:03:10;;;;;;;2.42;1.80;;;;;;;17.03;51.78;100312.75;12182292;19;20011;-82
2022/07/07 01:07:12;;;;;;;6.93;2.00;;;;;;;16.91;52.33;100310.25;12192977;19;20014;-81
2022/07/07 01:11:13;;;;;;;2.67;1.75;;;;;;;16.81;52.65;100297.19;12188919;19;20014;-82
2022/07/07 01:15:15;;;;;;;2.30;1.80;;;;;;;16.78;52.98;100294.97;12217855;19;20120;-81
2022/07/07 01:19:18;;;;;;;4.30;2.13;;;;;;;16.78;53.53;100283.00;12223172;19;20077;-82
2022/07/07 01:23:19;;;;;;;;;;;;;;;16.75;54.27;100278.78;12192874;19;20010;-81
2022/07/07 01:27:21;;;;;;;5.68;2.25;;;;;;;16.73;53.98;100281.00;12212126;19;20224;-82
2022/07/07 01:31:23;;;;;;;4.72;2.58;;;;;;;16.73;54.02;100281.00;12206994;19;20006;-82
2022/07/07 01:35:24;;;;;;;4.97;2.85;;;;;;;16.72;54.20;100279.34;12192936;19;20000;-81
2022/07/07 01:39:26;;;;;;;6.47;2.58;;;;;;;16.70;54.32;100267.66;12209663;19;20471;-82
2022/07/07 01:43:28;;;;;;;5.65;2.80;;;;;;;16.74;54.61;100263.19;12219211;19;20017;-82
2022/07/07 01:47:30;;;;;;;4.55;2.40;;;;;;;16.78;54.19;100253.22;12186872;19;20387;-82
2022/07/07 01:51:32;;;;;;;3.70;2.47;;;;;;;16.83;54.12;100246.78;12218062;19;20034;-82
2022/07/07 01:55:33;;;;;;;4.63;2.63;;;;;;;16.87;53.95;100241.53;12208180;19;20003;-82
2022/07/07 01:59:37;;;;;;;8.75;2.60;;;;;;;16.87;54.17;100244.31;12198311;19;20094;-82
2022/07/07 02:03:38;;;;;;;4.15;2.35;;;;;;;16.90;54.16;100247.34;12216708;19;20015;-82
2022/07/07 02:07:40;;;;;;;5.25;2.40;;;;;;;16.94;53.67;100242.06;12208129;19;20014;-82
2022/07/07 02:11:42;;;;;;;2.58;2.00;;;;;;;16.97;53.99;100247.88;12189879;19;20077;-82
2022/07/07 02:15:43;;;;;;;3.60;2.10;;;;;;;16.99;53.89;100237.31;12214314;19;20010;-83
2022/07/07 02:19:45;;;;;;;3.45;2.13;;;;;;;16.98;53.94;100234.78;12214877;19;20007;-82
2022/07/07 02:23:48;;;;;;;3.83;2.08;;;;;;;17.02;54.06;100239.53;12189656;19;20002;-81
2022/07/07 02:27:53;;;;;;;4.97;2.10;;;;;;;17.04;54.05;100233.66;12204523;19;20011;-81
2022/07/07 02:31:55;;;;;;;2.88;2.05;;;;;;;17.02;53.96;100231.19;12210705;19;20114;-81
2022/07/07 02:35:57;;;;;;;4.40;2.10;;;;;;;17.04;53.56;100233.66;12191856;19;20033;-81
2022/07/07 02:39:59;;;;;;;3.40;2.40;;;;;;;17.03;53.54;100234.78;12216335;19;20021;-82
2022/07/07 02:44:01;;;;;;;4.13;2.28;;;;;;;17.00;53.50;100236.19;12212065;19;20097;-81
2022/07/07 02:48:02;;;;;;;4.97;2.45;;;;;;;16.98;53.40;100227.28;12189317;19;20046;-82
2022/07/07 02:52:04;;;;;;;5.03;2.20;;;;;;;16.97;53.43;100230.34;12212402;19;20030;-82
2022/07/07 02:56:07;;;;;;;4.03;2.30;;;;;;;16.97;53.50;100241.50;12208210;19;20081;-82
2022/07/07 03:00:09;;;;;;;4.40;2.25;;;;;;;16.97;53.59;100231.19;12211925;19;20018;-81
2022/07/07 03:04:11;;;;;;;7.78;2.63;;;;;;;16.94;53.34;100214.22;12212399;19;20014;-80
2022/07/07 03:08:13;;;;;;;3.08;2.20;;;;;;;16.99;53.39;100217.00;12178514;19;20037;-81
2022/07/07 03:12:15;;;;;;;5.13;2.80;;;;;;;17.03;53.22;100209.75;12207481;19;20434;-81
2022/07/07 03:16:17;;;;;;;7.28;2.65;;;;;;;17.05;53.39;100210.28;12208866;19;20344;-81
2022/07/07 03:20:19;;;;;;;5.22;2.45;;;;;;;17.09;53.35;100211.38;12193316;19;20013;-81
2022/07/07 03:24:21;;;;;;;8.32;2.58;;;;;;;17.12;53.12;100213.59;12201536;19;20006;-81
2022/07/07 03:28:23;;;;;;;4.20;2.80;;;;;;;17.17;53.21;100212.75;12210197;19;20798;-81
2022/07/07 03:32:25;;;;;;;5.05;2.50;;;;;;;17.23;53.33;100208.84;12181891;19;20766;-80
2022/07/07 03:36:26;;;;;;;4.40;2.67;;;;;;;17.26;53.29;100211.06;12202637;19;20078;-80
2022/07/07 03:40:28;;;;;;;10.13;2.75;;;;;;;17.36;53.49;100202.66;12208918;19;20035;-81
2022/07/07 03:44:30;;;;;;;5.22;2.35;;;;;;;17.38;53.37;100192.06;12180662;19;20388;-82
2022/07/07 03:48:32;;;;;;;6.85;2.30;;;;;;;17.45;53.13;100202.88;12209155;19;20086;-80
2022/07/07 03:52:33;;;;;;;7.47;2.40;;;;;;;17.48;53.35;100192.00;12206415;19;20010;-81
2022/07/07 03:56:35;;;;;;;10.18;2.60;;;;;;;17.55;53.28;100197.28;12178566;19;20165;-80
2022/07/07 04:00:37;;;;;;;7.97;2.10;;;;;;;17.60;53.17;100197.22;12209649;19;20559;-80
2022/07/07 04:04:39;;;;;;;4.10;2.28;;;;;;;17.66;52.95;100193.28;12208646;19;20082;-80
2022/07/07 04:08:40;;;;;;;9.77;2.20;;;;;;;17.70;52.53;100199.97;12187685;19;20003;-82
2022/07/07 04:12:42;;;;;;;10.18;2.25;;;;;;;17.75;52.27;100196.31;12208451;19;20019;-80
2022/07/07 04:16:44;;;;;;;6.03;2.35;;;;;;;17.77;52.09;100192.16;12204201;19;20051;-82
2022/07/07 04:20:45;;;;;;;7.32;2.22;;;;;;;17.82;52.20;100196.00;12185068;19;20135;-81
2022/07/07 04:24:47;;;;;;;6.20;2.20;;;;;;;17.83;52.30;100187.38;12207168;19;20109;-82
2022/07/07 04:28:48;;;;;;;5.28;2.28;;;;;;;17.85;52.05;100185.13;12208935;19;20074;-82
2022/07/07 04:32:50;;;;;;;6.10;1.95;;;;;;;17.90;52.03;100189.81;12186457;19;20011;-83
2022/07/07 04:36:52;;;;;;;7.25;2.03;;;;;;;17.90;52.19;100173.09;12210683;19;20032;-82
2022/07/07 04:40:54;;;;;;;5.30;2.13;;;;;;;17.87;51.94;100170.91;12203264;19;20025;-82
2022/07/07 04:44:55;;;;;;;4.65;2.03;;;;;;;17.90;52.02;100173.09;12192115;19;20114;-82
2022/07/07 04:48:57;;;;;;;3.88;1.70;;;;;;;17.80;52.30;100162.03;12219924;19;20011;-81
2022/07/07 04:52:59;;;;;;;3.97;2.08;;;;;;;17.85;52.04;100162.00;12215939;19;20094;-82
2022/07/07 04:57:01;;;;;;;2.60;1.95;;;;;;;17.95;51.89;100164.72;12191996;19;20540;-85
2022/07/07 05:01:02;;;;;;;5.28;1.90;;;;;;;17.98;52.26;100161.34;12216301;19;20002;-81
2022/07/07 05:05:06;;;;;;;6.38;1.95;;;;;;;18.00;51.77;100145.16;12220426;19;20341;-82
2022/07/07 05:09:09;;;;;;;8.40;2.20;;;;;;;18.06;51.83;100151.53;12193618;19;20015;-81
2022/07/07 05:13:11;;;;;;;9.60;1.73;;;;;;;18.14;51.45;100142.53;12203738;19;20019;-81
2022/07/07 05:17:13;;;;;;;8.45;2.08;;;;;;;18.24;51.29;100145.22;12196721;19;20031;-81
2022/07/07 05:21:14;;;;;;;4.80;1.63;;;;;;;18.30;51.69;100140.44;12223498;19;20364;-83
2022/07/07 05:25:16;;;;;;;4.75;1.65;;;;;;;18.49;51.25;100143.31;12218622;19;20031;-83
2022/07/07 05:29:18;;;;;;;4.22;1.98;;;;;;;18.66;50.80;100155.69;12185246;19;20062;-81
2022/07/07 05:33:19;;;;;;;3.42;1.80;;;;;;;18.58;51.11;100145.16;12211153;19;20022;-81
2022/07/07 05:37:21;;;;;;;6.28;2.25;;;;;;;18.64;51.05;100145.94;12210556;19;20054;-82
2022/07/07 05:41:23;;;;;;;9.52;2.25;;;;;;;18.80;50.97;100150.28;12185431;19;20421;-81
2022/07/07 05:45:25;;;;;;;3.27;1.70;;;;;;;19.10;50.48;100157.47;12185168;19;20085;-82
2022/07/07 05:49:27;;;;;;;7.25;1.90;;;;;;;19.18;50.63;100153.16;12211354;19;20529;-81
2022/07/07 05:53:29;;;;;;;6.70;2.08;;;;;;;19.35;50.13;100155.47;12183728;19;20004;-81
2022/07/07 05:57:31;;;;;;;7.60;2.13;;;;;;;19.44;50.49;100156.44;12209231;19;20013;-83
2022/07/07 06:01:33;;;;;;;10.00;2.45;;;;;;;19.47;50.36;100152.22;12220400;19;20014;-82
2022/07/07 06:05:34;;;;;;;8.60;2.00;;;;;;;19.46;50.48;100153.38;12193036;19;20022;-82
2022/07/07 06:09:36;;;;;;;6.00;1.75;;;;;;;19.48;50.71;100149.16;12218555;19;20007;-81
2022/07/07 06:13:38;;;;;;;3.40;1.98;;;;;;;19.42;51.13;100153.13;12212882;19;20417;-80
2022/07/07 06:17:40;;;;;;;4.78;2.33;;;;;;;19.27;51.06;100162.53;12197295;19;20526;-81
2022/07/07 06:22:02;;;;;;;9.07;2.28;;;;;;;19.05;51.66;100168.69;12217944;19;20034;-81
2022/07/07 06:26:04;;;;;;;6.30;2.17;;;;;;;19.05;51.50;100171.47;12208822;19;20065;-81
2022/07/07 06:30:06;;;;;;;7.95;2.30;;;;;;;19.05;52.00;100167.84;12190263;19;20516;-80
2022/07/07 06:34:07;;;;;;;8.97;2.53;;;;;;;18.99;52.41;100166.25;12209968;19;20002;-80
2022/07/07 06:38:09;;;;;;;5.10;2.50;;;;;;;18.93;52.95;100165.50;12194121;19;20340;-80
2022/07/07 06:42:11;;;;;;;5.32;2.22;;;;;;;19.00;53.25;100177.13;12210330;19;20033;-80
2022/07/07 06:46:16;;;;;;;6.05;2.40;;;;;;;19.07;53.71;100171.19;12199366;19;20011;-80
2022/07/07 06:50:18;;;;;;;6.00;2.27;;;;;;;19.10;53.27;100177.00;12196399;19;20006;-81
2022/07/07 06:54:20;;;;;;;5.00;2.10;;;;;;;19.07;53.89;100180.41;12199537;19;20365;-81
2022/07/07 06:58:23;;;;;;;4.32;2.58;;;;;;;19.10;54.71;100176.19;12214337;19;20106;-81
2022/07/07 07:02:25;;;;;;;8.20;3.00;;;;;;;19.10;54.82;100179.81;12185404;19;20003;-82
2022/07/07 07:06:29;;;;;;;6.03;2.65;;;;;;;19.13;54.87;100181.19;12213751;19;20011;-84
2022/07/07 07:10:30;;;;;;;7.18;2.67;;;;;;;19.16;55.30;100177.78;12231908;19;20015;-84
2022/07/07 07:14:32;;;;;;;8.05;2.28;;;;;;;19.20;54.83;100176.06;12208772;19;20784;-84
2022/07/07 07:18:34;;;;;;;6.63;2.80;;;;;;;19.18;55.55;100177.47;12236455;19;20495;-84
2022/07/07 07:22:38;;;;;;;6.40;2.10;;;;;;;19.19;55.93;100162.41;12227758;19;20011;-84
2022/07/07 07:26:40;;;;;;;9.63;2.17;;;;;;;19.39;56.25;100150.09;12200443;19;20054;-84
2022/07/07 07:30:47;;;;;;;5.50;2.58;;;;;;;19.73;55.78;100147.13;12224298;19;20002;-85
2022/07/07 07:34:49;;;;;;;6.00;2.72;;;;;;;20.04;55.25;100131.50;12229328;19;20023;-84
2022/07/07 07:38:51;;;;;;;7.57;2.35;;;;;;;20.20;54.54;100126.50;12206921;19;20018;-84
2022/07/07 07:42:52;;;;;;;9.38;3.20;;;;;;;20.37;54.00;100119.50;12218783;19;20023;-83
2022/07/07 07:46:54;;;;;;;5.80;2.20;;;;;;;20.45;54.07;100143.97;12217670;19;20007;-84
2022/07/07 07:50:57;;;;;;;6.10;2.35;;;;;;;20.63;53.56;100157.09;12179267;19;20007;-85
2022/07/07 07:54:59;;;;;;;;;;;;;;;20.60;53.78;100173.69;12213393;19;20426;-84
2022/07/07 07:59:00;;;;;;;7.90;2.60;;;;;;;20.57;53.57;100172.34;12195220;19;20276;-84
2022/07/07 08:03:03;;;;;;;9.05;2.72;;;;;;;20.51;54.47;100162.34;12190642;19;20014;-85
2022/07/07 08:07:05;;;;;;;5.70;2.75;;;;;;;20.62;54.19;100157.44;12213900;19;20010;-85
2022/07/07 08:11:06;;;;;;;11.65;2.92;;;;;;;20.63;54.17;100167.47;12204287;19;20006;-84
2022/07/07 08:15:09;;;;;;;7.05;2.63;;;;;;;20.58;54.58;100153.56;12198600;19;20435;-84
2022/07/07 08:19:11;;;;;;;;;;;;;;;20.67;54.66;100137.72;12219349;19;20002;-84
2022/07/07 08:23:12;;;;;;;4.78;2.50;;;;;;;20.98;54.05;100140.75;12196841;19;19915;-85
2022/07/07 08:27:15;;;;;;;7.65;2.63;;;;;;;21.42;53.49;100124.41;12206549;19;20011;-84
2022/07/07 08:31:17;;;;;;;7.00;2.63;;;;;;;21.92;52.09;100129.97;12201742;19;20007;-84
2022/07/07 08:35:19;;;;;;;9.87;3.43;;;;;;;21.87;51.54;100124.53;12189837;19;20010;-84
2022/07/07 08:39:21;;;;;;;7.43;2.67;;;;;;;21.89;51.65;100131.44;12195759;19;20010;-84
2022/07/07 08:43:23;;;;;;;7.65;2.88;;;;;;;22.03;51.62;100123.81;12192265;19;20082;-85
2022/07/07 08:47:25;;;;;;;4.53;2.70;;;;;;;22.40;51.32;100112.50;12180502;19;20461;-85
2022/07/07 08:51:27;;;;;;;7.63;2.70;;;;;;;22.72;50.28;100114.16;12201730;19;20013;-84
2022/07/07 08:55:32;;;;;;;5.88;3.00;;;;;;;23.20;50.20;100102.97;12198849;19;20021;-83
2022/07/07 08:59:35;;;;;;;6.75;2.70;;;;;;;23.92;48.26;100120.41;12177543;19;20019;-85
2022/07/07 09:03:43;;;;;;;7.97;2.95;;;;;;;23.28;48.76;100118.16;12218290;19;20011;-85
2022/07/07 09:07:50;;;;;;;4.90;2.40;;;;;;;23.02;50.00;100115.28;12205571;19;20344;-85
2022/07/07 09:11:59;;;;;;;8.55;2.33;;;;;;;22.67;50.80;100123.56;12172712;19;20771;-85
2022/07/07 09:16:16;;;;;;;3.78;1.95;;;;;;;22.47;52.29;100119.34;12193897;19;20025;-86
2022/07/07 09:20:19;;;;;;;5.05;1.90;;;;;;;22.16;53.79;100124.91;12184348;19;20015;-84
2022/07/07 09:24:21;;;;;;;;;;;;;;;21.92;54.79;100135.59;12204282;19;20007;-84
2022/07/07 09:28:26;;;;;;;3.40;1.90;;;;;;;21.67;55.51;100132.25;12199528;19;19910;-84
2022/07/07 09:32:46;;;;;;;4.97;1.80;;;;;;;21.43;56.28;100140.94;12186258;19;20006;-84
2022/07/07 09:41:08;;;;;;;4.15;1.80;;;;;;;21.20;57.17;100133.56;12212927;19;19917;-84
2022/07/07 09:45:12;;;;;;;3.10;1.95;;;;;;;21.16;58.08;100141.78;12194308;19;20475;-83
2022/07/07 09:49:14;;;;;;;5.05;1.80;;;;;;;21.24;58.95;100143.00;12212379;19;20007;-83
2022/07/07 09:53:16;;;;;;;2.83;1.63;;;;;;;21.20;57.94;100142.81;12191919;19;20010;-84
2022/07/07 09:57:19;;;;;;;4.55;2.17;;;;;;;21.01;59.17;100158.91;12224778;19;20009;-85
2022/07/07 10:01:27;;;;;;;12.55;2.15;;;;;;;20.66;65.12;100178.06;12207146;19;20132;-83
2022/07/07 10:05:30;;;;;;;4.55;2.60;;;;;;;19.93;69.86;100194.38;12190315;19;20006;-83
2022/07/07 10:09:31;;;;;;;10.10;2.77;;;;;;;19.58;74.00;100204.91;12199624;19;20027;-83
2022/07/07 10:13:37;;;;;;;3.55;2.03;;;;;;;19.27;74.83;100212.00;12203236;19;20322;-82
2022/07/07 10:17:40;;;;;;;4.20;1.95;;;;;;;19.22;74.08;100228.84;12194359;19;20027;-84
2022/07/07 10:21:47;;;;;;;3.00;1.75;;;;;;;19.08;75.55;100225.91;12219172;19;20653;-82
2022/07/07 10:26:00;;;;;;;3.17;1.83;;;;;;;18.99;76.29;100224.91;12206093;19;20051;-81
2022/07/07 10:30:04;;;;;;;3.22;1.90;;;;;;;19.03;75.75;100221.22;12187787;19;20528;-82
2022/07/07 10:34:08;;;;;;;3.78;1.83;;;;;;;19.44;75.29;100220.72;12209308;19;20106;-82
2022/07/07 10:38:16;;;;;;;6.60;2.45;;;;;;;20.00;73.44;100222.78;12203107;19;20468;-82
2022/07/07 10:42:18;;;;;;;3.30;2.03;;;;;;;20.57;72.32;100222.72;12209797;19;20460;-81
2022/07/07 10:46:20;;;;;;;3.35;1.85;;;;;;;21.16;70.31;100218.25;12216284;19;20006;-82
2022/07/07 10:50:30;;;;;;;2.87;1.90;;;;;;;21.76;68.65;100222.09;12200785;19;20027;-82
2022/07/07 10:54:36;;;;;;;2.95;1.60;;;;;;;21.96;67.85;100223.63;12200960;19;20007;-81
2022/07/07 10:58:44;;;;;;;2.05;1.70;;;;;;;22.16;66.12;100222.28;12213654;19;20046;-84
2022/07/07 11:03:10;;;;;;;3.63;1.73;;;;;;;22.21;64.31;100227.81;12179544;19;20074;-85
2022/07/07 11:07:21;;;;;;;3.42;2.00;;;;;;;22.46;63.71;100240.41;12211202;19;20673;-84
2022/07/07 11:11:46;;;;;;;2.95;1.92;;;;;;;22.57;60.84;100235.34;12187657;19;20018;-84
2022/07/07 11:16:29;;;;;;;2.47;1.92;;;;;;;22.88;59.52;100229.78;12210164;19;20312;-86
2022/07/07 11:20:31;;;;;;;1.90;1.60;;;;;;;22.66;59.52;100237.06;12212249;19;20464;-85
2022/07/07 11:24:34;;;;;;;3.03;2.10;;;;;;;22.15;60.94;100246.72;12206021;19;20015;-86
2022/07/07 11:28:59;;;;;;;3.33;1.65;;;;;;;21.83;62.28;100244.94;12208417;19;20041;-87
2022/07/07 11:33:21;;;;;;;2.70;1.60;;;;;;;21.12;65.45;100255.63;12187628;19;20018;-85
2022/07/07 11:37:33;;;;;;;1.55;1.13;;;;;;;20.43;65.45;100283.41;12210297;19;20011;-82
2022/07/07 11:41:39;;;;;;;4.65;0.82;;;;;;;20.09;64.46;100264.88;12193199;19;20112;-83
2022/07/07 11:45:41;;;;;;;1.17;0.80;;;;;;;20.43;63.36;100261.81;12217328;19;20010;-80
2022/07/07 11:49:43;;;;;;;0.73;0.40;;;;;;;21.04;60.88;100268.38;12211634;19;20018;-83
2022/07/07 11:54:15;;;;;;;1.77;0.60;;;;;;;21.77;57.39;100258.25;12181633;19;20007;-84
2022/07/07 11:58:23;;;;;;;2.65;0.70;;;;;;;22.00;55.36;100261.09;12200019;19;20006;-84
2022/07/07 12:02:25;;;;;;;3.03;0.60;;;;;;;22.53;54.32;100263.25;12189887;19;21645;-84
2022/07/07 12:06:27;;;;;;;1.42;0.57;;;;;;;23.28;51.90;100264.38;12223768;19;20094;-82
2022/07/07 12:10:32;;;;;;;1.55;0.93;;;;;;;23.90;49.54;100277.53;12219852;19;20042;-81
2022/07/07 12:14:48;;;;;;;1.85;0.50;;;;;;;24.40;47.72;100265.81;12188035;19;20003;-83
2022/07/07 12:19:10;;;;;;;2.20;0.80;;;;;;;24.53;47.12;100272.47;12212339;19;20029;-84
2022/07/07 12:23:17;;;;;;;3.80;0.67;;;;;;;24.71;45.47;100276.91;12215788;19;20007;-84
2022/07/07 12:27:18;;;;;;;3.65;0.70;;;;;;;24.15;45.16;100289.13;12219681;19;20264;-83
2022/07/07 12:31:22;;;;;;;0.97;0.60;;;;;;;23.95;46.30;100285.81;12248496;19;20022;-85
2022/07/07 12:35:40;;;;;;;3.33;0.80;;;;;;;24.54;46.15;100294.69;12182471;19;20007;-82
2022/07/07 12:39:49;;;;;;;3.80;1.00;;;;;;;24.29;47.10;100295.47;12199848;19;20014;-83
2022/07/07 12:44:10;;;;;;;3.00;0.90;;;;;;;23.85;48.17;100314.25;12216346;19;21140;-82
2022/07/07 12:48:16;;;;;;;2.10;1.15;;;;;;;23.41;49.42;100316.06;12182009;19;20014;-82
2022/07/07 12:52:20;;;;;;;3.17;1.35;;;;;;;23.40;49.45;100322.81;12201543;19;20014;-81
2022/07/07 12:57:00;;;;;;;2.80;1.00;;;;;;;23.26;49.51;100308.88;12177507;19;20033;-82
2022/07/07 13:01:23;;;;;;;2.17;1.35;;;;;;;22.88;50.79;100314.06;12188354;19;20003;-83
2022/07/07 13:05:27;;;;;;;2.25;1.00;;;;;;;22.84;51.69;100324.28;12184198;19;20006;-84
2022/07/07 13:09:29;;;;;;;2.10;1.10;;;;;;;23.41;49.67;100335.75;12202515;19;20451;-86
2022/07/07 13:13:46;;;;;;;2.08;0.80;;;;;;;24.47;47.18;100330.94;12216794;19;20025;-85
2022/07/07 13:18:26;;;;;;;3.53;2.08;;;;;;;24.24;44.90;100340.66;12196275;19;20027;-84
2022/07/07 13:22:48;;;;;;;4.95;2.50;;;;;;;24.06;45.80;100335.03;12220480;19;20021;-84
2022/07/07 13:26:50;;;;;;;7.05;2.25;;;;;;;23.59;47.49;100362.81;12195197;19;20010;-84
2022/07/07 13:30:55;;;;;;;;;;;;;;;23.26;47.88;100358.63;12206678;19;20011;-83
2022/07/07 13:35:28;;;;;;;2.33;1.60;;;;;;;22.63;49.16;100369.72;12206292;19;19970;-82
2022/07/07 13:43:52;;;;;;;9.88;1.95;;;;;;;22.03;52.10;100369.91;12210816;19;20014;-81
2022/07/07 13:47:54;;;;;;;3.97;1.50;;;;;;;22.01;53.23;100372.19;12186992;19;20010;-84
2022/07/07 13:51:58;;;;;;;3.20;1.30;;;;;;;22.37;52.51;100363.03;12217038;19;20014;-84
2022/07/07 13:56:15;;;;;;;2.38;1.20;;;;;;;22.81;50.84;100381.09;12159359;19;20010;-83
2022/07/07 14:00:23;;;;;;;2.65;1.08;;;;;;;22.49;51.49;100380.19;12210730;19;20019;-84
2022/07/07 14:04:55;;;;;;;2.63;0.98;;;;;;;22.41;51.66;100394.97;12211642;19;20007;-83
2022/07/07 14:08:57;;;;;;;2.67;1.13;;;;;;;22.43;52.13;100398.28;12184881;19;20337;-81
2022/07/07 14:12:58;;;;;;;1.60;0.90;;;;;;;22.85;51.25;100411.06;12215293;19;20014;-83
2022/07/07 14:17:00;;;;;;;3.55;1.10;;;;;;;22.90;50.58;100398.84;12215748;19;20480;-85
2022/07/07 14:21:03;;;;;;;3.67;1.13;;;;;;;22.99;51.05;100396.97;12192088;19;20633;-83
2022/07/07 14:25:06;;;;;;;1.63;1.00;;;;;;;23.52;50.28;100390.53;12213097;19;20039;-83
2022/07/07 14:29:07;;;;;;;4.55;0.90;;;;;;;23.99;48.02;100376.88;12201900;19;20849;-83
2022/07/07 14:33:09;;;;;;;1.00;0.80;;;;;;;23.61;48.03;100384.97;12179600;19;20097;-84
2022/07/07 14:37:11;;;;;;;1.37;1.03;;;;;;;23.29;48.48;100391.72;12204603;19;20018;-81
2022/07/07 14:41:14;;;;;;;2.53;1.00;;;;;;;22.95;48.51;100381.91;12235987;19;20356;-83
2022/07/07 14:45:16;;;;;;;3.67;1.25;;;;;;;22.59;48.68;100395.97;12183885;19;21942;-82
2022/07/07 14:49:24;;;;;;;2.35;1.17;;;;;;;22.25;50.29;100397.28;12206247;19;20011;-84
2022/07/07 14:53:27;;;;;;;4.25;1.10;;;;;;;22.21;50.47;100402.66;12193671;19;20035;-82
2022/07/07 14:57:33;;;;;;;1.90;0.93;;;;;;;22.14;50.74;100396.63;12208772;19;20026;-83
2022/07/07 15:01:36;;;;;;;3.08;0.93;;;;;;;21.99;51.04;100405.38;12203921;19;20387;-83
2022/07/07 15:05:39;;;;;;;2.72;1.10;;;;;;;21.88;51.56;100398.28;12191564;19;20010;-82
2022/07/07 15:09:41;;;;;;;2.28;1.10;;;;;;;21.93;52.08;100406.63;12205229;19;20365;-83
2022/07/07 15:13:47;;;;;;;2.88;1.25;;;;;;;21.73;52.85;100411.47;12206133;19;20025;-85
2022/07/07 15:17:49;;;;;;;2.85;1.10;;;;;;;21.42;53.63;100418.78;12193257;19;20007;-82
2022/07/07 15:21:53;;;;;;;5.40;1.50;;;;;;;21.04;54.85;100424.47;12215196;19;20015;-82
2022/07/07 15:25:55;;;;;;;5.43;1.20;;;;;;;20.81;55.57;100443.84;12205663;19;20010;-82
2022/07/07 15:29:57;;;;;;;3.15;1.25;;;;;;;20.61;56.80;100442.19;12183118;19;20314;-83
2022/07/07 15:34:17;;;;;;;3.78;1.20;;;;;;;20.49;58.32;100455.75;12204403;19;20014;-81
2022/07/07 15:38:22;;;;;;;2.40;1.38;;;;;;;20.46;58.01;100445.16;12189075;19;20010;-85
2022/07/07 15:42:31;;;;;;;1.85;1.13;;;;;;;20.55;58.13;100450.94;12199707;19;20003;-83
2022/07/07 15:46:33;;;;;;;;;;;;;;;20.60;58.97;100448.91;12200982;19;20020;-84
2022/07/07 15:50:37;;;;;;;3.13;1.23;;;;;;;20.68;57.98;100467.00;12191664;19;21133;-81
2022/07/07 15:54:41;;;;;;;4.63;1.63;;;;;;;20.71;58.05;100467.22;12205915;19;20364;-81
2022/07/07 15:58:49;;;;;;;2.60;1.23;;;;;;;20.75;57.68;100472.22;12235305;19;20030;-84
2022/07/07 16:02:53;;;;;;;4.85;1.80;;;;;;;20.61;58.15;100473.00;12200307;19;20007;-84
2022/07/07 16:06:58;;;;;;;2.28;1.70;;;;;;;20.52;58.56;100473.91;12212071;19;20002;-83
2022/07/07 16:11:04;;;;;;;3.15;1.65;;;;;;;20.59;59.13;100480.03;12150891;19;20070;-84
2022/07/07 16:15:10;;;;;;;2.22;1.70;;;;;;;20.44;60.24;100486.63;12200180;19;20031;-83
2022/07/07 16:19:12;;;;;;;7.10;1.75;;;;;;;20.35;59.72;100492.03;12215010;19;20090;-81
2022/07/07 16:23:14;;;;;;;2.15;1.52;;;;;;;20.24;60.39;100491.31;12212290;19;20011;-81
2022/07/07 16:27:16;;;;;;;2.47;1.80;;;;;;;20.18;60.13;100495.31;12167922;19;20035;-83
2022/07/07 16:31:18;;;;;;;1.95;1.55;;;;;;;20.11;60.37;100488.41;12201823;19;20022;-82
2022/07/07 16:35:21;;;;;;;2.80;1.48;;;;;;;20.09;60.31;100490.69;12173431;19;20010;-82
2022/07/07 16:39:25;;;;;;;3.78;1.65;;;;;;;20.06;60.38;100499.66;12196696;19;20010;-82
2022/07/07 16:43:31;;;;;;;8.80;1.98;;;;;;;20.03;60.91;100492.69;12196936;19;20002;-82
2022/07/07 16:47:33;;;;;;;2.47;1.65;;;;;;;20.23;60.10;100502.81;12171975;19;20069;-83
2022/07/07 16:51:35;;;;;;;6.75;1.50;;;;;;;20.29;60.26;100500.81;12199854;19;20579;-80
2022/07/07 16:55:38;;;;;;;5.18;1.92;;;;;;;20.25;60.38;100508.94;12195364;19;20098;-84
2022/07/07 16:59:48;;;;;;;4.57;1.67;;;;;;;20.19;60.91;100507.34;12174519;19;20015;-81
2022/07/07 17:03:50;;;;;;;4.77;1.97;;;;;;;20.26;60.41;100510.63;12187001;19;20024;-82
2022/07/07 17:07:52;;;;;;;4.40;1.40;;;;;;;20.29;61.00;100510.03;12199621;19;20021;-82
2022/07/07 17:11:53;;;;;;;2.80;1.50;;;;;;;20.40;60.26;100511.56;12159902;19;20079;-83
2022/07/07 17:16:03;;;;;;;2.08;1.42;;;;;;;20.58;60.35;100517.53;12198808;19;20019;-82
2022/07/07 17:20:05;;;;;;;3.55;1.10;;;;;;;20.67;59.77;100508.19;12203720;19;20378;-84
2022/07/07 17:24:07;;;;;;;2.83;1.30;;;;;;;20.80;59.25;100515.00;12169083;19;20006;-83
2022/07/07 17:28:09;;;;;;;1.58;1.23;;;;;;;20.72;58.83;100515.69;12196035;19;20010;-83
2022/07/07 17:32:10;;;;;;;4.13;1.83;;;;;;;20.60;59.24;100512.47;12196559;19;20007;-81
2022/07/07 17:36:12;;;;;;;3.37;1.27;;;;;;;20.64;59.42;100505.13;12169659;19;20599;-83
2022/07/07 17:40:15;;;;;;;2.70;1.40;;;;;;;20.62;59.47;100507.41;12199856;19;20043;-82
2022/07/07 17:44:16;;;;;;;;;;;;;;;20.55;60.20;100510.56;12201697;19;20033;-83
2022/07/07 17:48:19;;;;;;;4.10;2.00;;;;;;;20.44;60.27;100512.66;12179835;19;19911;-82
2022/07/07 17:52:21;;;;;;;1.87;1.27;;;;;;;20.47;59.99;100514.84;12202928;19;20664;-82
2022/07/07 17:56:24;;;;;;;2.30;1.92;;;;;;;20.44;59.72;100512.66;12190982;19;20010;-82
2022/07/07 18:00:26;;;;;;;6.57;1.95;;;;;;;20.38;59.60;100508.25;12210088;19;20085;-82
2022/07/07 18:04:28;;;;;;;3.57;1.57;;;;;;;20.34;60.64;100515.56;12199805;19;20013;-83
2022/07/07 18:08:31;;;;;;;2.58;1.52;;;;;;;20.34;60.11;100509.94;12189565;19;20014;-81
2022/07/07 18:12:34;;;;;;;3.78;1.80;;;;;;;20.29;60.23;100521.22;12214620;19;20084;-82
2022/07/07 18:16:36;;;;;;;;;;;;;;;20.30;60.18;100522.88;12212702;19;20518;-82
2022/07/07 18:20:38;;;;;;;7.13;2.50;;;;;;;20.34;60.64;100518.34;12193622;19;20638;-82
2022/07/07 18:24:39;;;;;;;2.47;1.48;;;;;;;20.37;60.41;100517.75;12225440;19;20017;-80
2022/07/07 18:28:41;;;;;;;4.07;1.70;;;;;;;20.33;60.31;100527.06;12221928;19;20018;-82
2022/07/07 18:32:44;;;;;;;4.15;1.50;;;;;;;20.38;60.04;100541.00;12183091;19;20026;-82
2022/07/07 18:36:46;;;;;;;2.35;1.75;;;;;;;20.36;60.01;100543.25;12206161;19;20019;-82
2022/07/07 18:40:48;;;;;;;3.00;1.50;;;;;;;20.32;60.07;100543.03;12205417;19;20088;-82
2022/07/07 18:44:49;;;;;;;4.65;1.83;;;;;;;20.22;60.33;100548.72;12190957;19;20016;-83
2022/07/07 18:48:51;;;;;;;2.05;1.60;;;;;;;20.03;60.57;100557.88;12203431;19;20057;-83
2022/07/07 18:52:53;;;;;;;2.83;1.73;;;;;;;19.88;60.72;100563.59;12209328;19;20010;-79
2022/07/07 18:56:55;;;;;;;3.95;2.00;;;;;;;19.91;60.37;100560.22;12179601;19;20070;-83